DLH1AB EHAM-LDSP
Flight info
| Callsign | DLH1AB |
|---|---|
| Flight time | 1h 46m |
| Altitude | FL370 |
| Route | REND2V EDUPO Z739 MISGO ASBON TUSUK UTABA BEMKI ELMEM DIRAB VESAL PEVAL PUL LOS MINTU SAL SAL1Y |
| Aircraft | A320/M-SDE3FGHILRWY/LB1 |
Departure
| Time | 2026-04-29 10:39 |
|---|---|
| Airport | Amsterdam Airport Schiphol (EHAM) |
Arrival
| Time | 2026-04-29 12:25 |
|---|---|
| Airport | Split Saint Jerome Airport (LDSP) |
| Time | Latitude | Longitude | Altitude | Speed | Heading |
|---|---|---|---|---|---|
| 2026-04-29 10:13 | 52.30410 | 4.76360 | -1 ft | 0 kts | 238° |
| 2026-04-29 10:25 | 52.30418 | 4.76381 | -1 ft | 2 kts | 238° |
| 2026-04-29 10:25 | 52.30427 | 4.76405 | -1 ft | 2 kts | 215° |
| 2026-04-29 10:25 | 52.30442 | 4.76412 | -1 ft | 2 kts | 180° |
| 2026-04-29 10:25 | 52.30452 | 4.76412 | -1 ft | 0 kts | 152° |
| 2026-04-29 10:27 | 52.30452 | 4.76413 | -1 ft | 1 kts | 148° |
| 2026-04-29 10:27 | 52.30422 | 4.76447 | -1 ft | 9 kts | 147° |
| 2026-04-29 10:28 | 52.30345 | 4.76520 | -1 ft | 15 kts | 161° |
| 2026-04-29 10:28 | 52.30269 | 4.76449 | -1 ft | 13 kts | 235° |
| 2026-04-29 10:28 | 52.30212 | 4.76300 | -1 ft | 18 kts | 240° |
| 2026-04-29 10:28 | 52.30141 | 4.76119 | -1 ft | 19 kts | 236° |
| 2026-04-29 10:29 | 52.30072 | 4.75945 | -1 ft | 19 kts | 238° |
| 2026-04-29 10:29 | 52.29993 | 4.75738 | -1 ft | 23 kts | 238° |
| 2026-04-29 10:29 | 52.29912 | 4.75526 | -1 ft | 21 kts | 238° |
| 2026-04-29 10:29 | 52.29844 | 4.75324 | -1 ft | 20 kts | 255° |
| 2026-04-29 10:30 | 52.29874 | 4.75143 | -1 ft | 16 kts | 303° |
| 2026-04-29 10:30 | 52.29959 | 4.74977 | -1 ft | 25 kts | 311° |
| 2026-04-29 10:30 | 52.30086 | 4.74746 | 2 ft | 28 kts | 311° |
| 2026-04-29 10:30 | 52.30210 | 4.74517 | 10 ft | 27 kts | 311° |
| 2026-04-29 10:31 | 52.30335 | 4.74284 | -1 ft | 31 kts | 313° |
| 2026-04-29 10:31 | 52.30533 | 4.74199 | -1 ft | 31 kts | 3° |
| 2026-04-29 10:31 | 52.30745 | 4.74223 | -1 ft | 31 kts | 4° |
| 2026-04-29 10:31 | 52.30958 | 4.74249 | -1 ft | 31 kts | 3° |
| 2026-04-29 10:32 | 52.31171 | 4.74265 | -1 ft | 31 kts | 2° |
| 2026-04-29 10:32 | 52.31384 | 4.74283 | -1 ft | 31 kts | 3° |
| 2026-04-29 10:32 | 52.31598 | 4.74305 | -1 ft | 31 kts | 4° |
| 2026-04-29 10:32 | 52.31809 | 4.74325 | -1 ft | 30 kts | 3° |
| 2026-04-29 10:33 | 52.31986 | 4.74321 | -1 ft | 24 kts | 336° |
| 2026-04-29 10:33 | 52.32027 | 4.74156 | -1 ft | 13 kts | 283° |
| 2026-04-29 10:33 | 52.32036 | 4.73998 | -2 ft | 17 kts | 274° |
| 2026-04-29 10:33 | 52.32044 | 4.73814 | -1 ft | 15 kts | 274° |
| 2026-04-29 10:34 | 52.32051 | 4.73637 | -1 ft | 19 kts | 274° |
| 2026-04-29 10:34 | 52.32067 | 4.73421 | -1 ft | 21 kts | 288° |
| 2026-04-29 10:34 | 52.32204 | 4.73193 | -1 ft | 34 kts | 320° |
| 2026-04-29 10:34 | 52.32397 | 4.72932 | -1 ft | 37 kts | 320° |
| 2026-04-29 10:35 | 52.32590 | 4.72652 | -1 ft | 37 kts | 319° |
| 2026-04-29 10:35 | 52.32774 | 4.72351 | -1 ft | 38 kts | 312° |
| 2026-04-29 10:35 | 52.32945 | 4.72026 | -1 ft | 36 kts | 312° |
| 2026-04-29 10:35 | 52.33081 | 4.71783 | -1 ft | 27 kts | 310° |
| 2026-04-29 10:36 | 52.33140 | 4.71633 | -1 ft | 12 kts | 284° |
| 2026-04-29 10:36 | 52.33110 | 4.71491 | -1 ft | 16 kts | 232° |
| 2026-04-29 10:36 | 52.33031 | 4.71357 | -1 ft | 16 kts | 224° |
| 2026-04-29 10:36 | 52.32951 | 4.71241 | -1 ft | 15 kts | 221° |
| 2026-04-29 10:37 | 52.32882 | 4.71127 | -1 ft | 14 kts | 232° |
| 2026-04-29 10:37 | 52.32862 | 4.70987 | -2 ft | 13 kts | 269° |
| 2026-04-29 10:37 | 52.32898 | 4.70901 | -2 ft | 0 kts | 7° |
| 2026-04-29 10:38 | 52.32961 | 4.70908 | -3 ft | 39 kts | 4° |
| 2026-04-29 10:38 | 52.33481 | 4.70964 | -2 ft | 107 kts | 2° |
| 2026-04-29 10:38 | 52.34407 | 4.71034 | 20 ft | 156 kts | 1° |
| 2026-04-29 10:39 | 52.35482 | 4.71072 | 648 ft | 154 kts | 8° |
| 2026-04-29 10:39 | 52.36547 | 4.71174 | 1365 ft | 156 kts | 11° |
| 2026-04-29 10:39 | 52.37706 | 4.71311 | 1815 ft | 178 kts | 11° |
| 2026-04-29 10:39 | 52.39019 | 4.71467 | 2223 ft | 201 kts | 10° |
| 2026-04-29 10:40 | 52.40478 | 4.71629 | 2683 ft | 221 kts | 11° |
| 2026-04-29 10:40 | 52.42069 | 4.71956 | 3177 ft | 239 kts | 25° |
| 2026-04-29 10:40 | 52.43564 | 4.73162 | 3932 ft | 243 kts | 35° |
| 2026-04-29 10:40 | 52.45052 | 4.74524 | 4904 ft | 247 kts | 34° |
| 2026-04-29 10:41 | 52.46492 | 4.76045 | 5820 ft | 247 kts | 45° |
| 2026-04-29 10:41 | 52.47583 | 4.78208 | 6730 ft | 248 kts | 63° |
| 2026-04-29 10:41 | 52.48179 | 4.80855 | 7557 ft | 251 kts | 80° |
| 2026-04-29 10:41 | 52.48349 | 4.83723 | 8411 ft | 255 kts | 85° |
| 2026-04-29 10:42 | 52.48487 | 4.86652 | 9252 ft | 261 kts | 87° |
| 2026-04-29 10:42 | 52.48282 | 4.89630 | 10067 ft | 268 kts | 105° |
| 2026-04-29 10:42 | 52.47471 | 4.92431 | 10698 ft | 284 kts | 122° |
| 2026-04-29 10:42 | 52.46011 | 4.94811 | 10960 ft | 312 kts | 141° |
| 2026-04-29 10:43 | 52.44170 | 4.96938 | 11179 ft | 336 kts | 141° |
| 2026-04-29 10:43 | 52.42213 | 4.99176 | 11631 ft | 349 kts | 141° |
| 2026-04-29 10:43 | 52.40211 | 5.01461 | 12308 ft | 355 kts | 142° |
| 2026-04-29 10:43 | 52.38182 | 5.03785 | 13010 ft | 359 kts | 141° |
| 2026-04-29 10:44 | 52.36126 | 5.06149 | 13693 ft | 364 kts | 141° |
| 2026-04-29 10:44 | 52.34070 | 5.08582 | 14373 ft | 367 kts | 137° |
| 2026-04-29 10:44 | 52.32236 | 5.11458 | 14975 ft | 367 kts | 128° |
| 2026-04-29 10:44 | 52.30531 | 5.14583 | 15580 ft | 371 kts | 128° |
| 2026-04-29 10:45 | 52.28802 | 5.17735 | 16191 ft | 376 kts | 128° |
| 2026-04-29 10:45 | 52.27048 | 5.20922 | 16794 ft | 380 kts | 128° |
| 2026-04-29 10:45 | 52.25276 | 5.24138 | 17377 ft | 384 kts | 129° |
| 2026-04-29 10:45 | 52.23607 | 5.27546 | 17954 ft | 387 kts | 122° |
| 2026-04-29 10:46 | 52.22047 | 5.31142 | 18554 ft | 391 kts | 122° |
| 2026-04-29 10:46 | 52.20470 | 5.34772 | 19092 ft | 395 kts | 122° |
| 2026-04-29 10:46 | 52.18882 | 5.38429 | 19641 ft | 397 kts | 122° |
| 2026-04-29 10:46 | 52.17287 | 5.42107 | 20198 ft | 400 kts | 122° |
| 2026-04-29 10:47 | 52.15669 | 5.45822 | 20704 ft | 404 kts | 122° |
| 2026-04-29 10:47 | 52.14041 | 5.49551 | 21229 ft | 407 kts | 122° |
| 2026-04-29 10:47 | 52.12399 | 5.53306 | 21745 ft | 409 kts | 122° |
| 2026-04-29 10:47 | 52.10748 | 5.57079 | 22236 ft | 412 kts | 122° |
| 2026-04-29 10:48 | 52.09085 | 5.60873 | 22719 ft | 414 kts | 122° |
| 2026-04-29 10:48 | 52.07409 | 5.64688 | 23197 ft | 417 kts | 122° |
| 2026-04-29 10:48 | 52.05662 | 5.68469 | 23643 ft | 422 kts | 127° |
| 2026-04-29 10:48 | 52.03740 | 5.72066 | 24058 ft | 424 kts | 128° |
| 2026-04-29 10:49 | 52.01796 | 5.75688 | 24416 ft | 427 kts | 128° |
| 2026-04-29 10:49 | 51.99848 | 5.79310 | 24794 ft | 428 kts | 127° |
| 2026-04-29 10:49 | 51.97892 | 5.82956 | 25165 ft | 430 kts | 127° |
| 2026-04-29 10:49 | 51.95932 | 5.86613 | 25532 ft | 431 kts | 127° |
| 2026-04-29 10:50 | 51.93967 | 5.90283 | 25887 ft | 433 kts | 127° |
| 2026-04-29 10:50 | 51.91994 | 5.93966 | 26231 ft | 435 kts | 127° |
| 2026-04-29 10:50 | 51.90007 | 5.97662 | 26574 ft | 436 kts | 127° |
| 2026-04-29 10:50 | 51.88013 | 6.01364 | 26936 ft | 438 kts | 127° |
| 2026-04-29 10:51 | 51.86014 | 6.05078 | 27255 ft | 439 kts | 127° |
| 2026-04-29 10:51 | 51.84008 | 6.08803 | 27575 ft | 441 kts | 127° |
| 2026-04-29 10:51 | 51.81990 | 6.12524 | 27867 ft | 442 kts | 127° |
| 2026-04-29 10:51 | 51.79956 | 6.16247 | 28159 ft | 444 kts | 127° |
| 2026-04-29 10:52 | 51.77911 | 6.19981 | 28442 ft | 445 kts | 127° |
| 2026-04-29 10:52 | 51.75860 | 6.23724 | 28715 ft | 446 kts | 127° |
| 2026-04-29 10:52 | 51.73807 | 6.27476 | 28971 ft | 448 kts | 127° |
| 2026-04-29 10:52 | 51.71753 | 6.31229 | 29315 ft | 447 kts | 126° |
| 2026-04-29 10:53 | 51.69699 | 6.34963 | 29671 ft | 446 kts | 126° |
| 2026-04-29 10:53 | 51.67641 | 6.38687 | 30026 ft | 445 kts | 126° |
| 2026-04-29 10:53 | 51.65588 | 6.42397 | 30396 ft | 444 kts | 126° |
| 2026-04-29 10:53 | 51.63543 | 6.46097 | 30714 ft | 442 kts | 126° |
| 2026-04-29 10:54 | 51.61508 | 6.49788 | 31050 ft | 441 kts | 126° |
| 2026-04-29 10:54 | 51.59481 | 6.53462 | 31373 ft | 439 kts | 126° |
| 2026-04-29 10:54 | 51.57457 | 6.57123 | 31688 ft | 438 kts | 126° |
| 2026-04-29 10:54 | 51.55436 | 6.60769 | 31995 ft | 437 kts | 126° |
| 2026-04-29 10:55 | 51.53418 | 6.64402 | 32309 ft | 436 kts | 126° |
| 2026-04-29 10:55 | 51.51402 | 6.68023 | 32620 ft | 435 kts | 125° |
| 2026-04-29 10:55 | 51.49393 | 6.71628 | 32940 ft | 434 kts | 125° |
| 2026-04-29 10:55 | 51.47381 | 6.75231 | 33267 ft | 433 kts | 125° |
| 2026-04-29 10:56 | 51.45375 | 6.78819 | 33561 ft | 433 kts | 125° |
| 2026-04-29 10:56 | 51.43369 | 6.82396 | 33869 ft | 432 kts | 125° |
| 2026-04-29 10:56 | 51.41329 | 6.85931 | 34181 ft | 435 kts | 129° |
| 2026-04-29 10:56 | 51.38990 | 6.89041 | 34468 ft | 442 kts | 139° |
| 2026-04-29 10:57 | 51.36393 | 6.91703 | 34735 ft | 445 kts | 141° |
| 2026-04-29 10:57 | 51.33771 | 6.94335 | 34951 ft | 446 kts | 141° |
| 2026-04-29 10:57 | 51.31151 | 6.96967 | 35163 ft | 447 kts | 141° |
| 2026-04-29 10:57 | 51.28522 | 6.99613 | 35374 ft | 447 kts | 142° |
| 2026-04-29 10:58 | 51.25896 | 7.02254 | 35579 ft | 448 kts | 142° |
| 2026-04-29 10:58 | 51.23263 | 7.04901 | 35781 ft | 448 kts | 142° |
| 2026-04-29 10:58 | 51.20624 | 7.07543 | 35980 ft | 449 kts | 142° |
| 2026-04-29 10:58 | 51.17980 | 7.10178 | 36177 ft | 449 kts | 143° |
| 2026-04-29 10:59 | 51.15337 | 7.12808 | 36375 ft | 450 kts | 143° |
| 2026-04-29 10:59 | 51.12687 | 7.15446 | 36564 ft | 451 kts | 143° |
| 2026-04-29 10:59 | 51.10028 | 7.18096 | 36713 ft | 452 kts | 144° |
| 2026-04-29 10:59 | 51.07369 | 7.20747 | 36874 ft | 452 kts | 144° |
| 2026-04-29 11:00 | 51.04710 | 7.23394 | 37023 ft | 454 kts | 144° |
| 2026-04-29 11:00 | 51.02033 | 7.26050 | 37186 ft | 454 kts | 144° |
| 2026-04-29 11:00 | 50.99358 | 7.28693 | 37351 ft | 454 kts | 144° |
| 2026-04-29 11:00 | 50.96676 | 7.31338 | 37514 ft | 455 kts | 145° |
| 2026-04-29 11:01 | 50.93993 | 7.33982 | 37681 ft | 455 kts | 145° |
| 2026-04-29 11:01 | 50.91309 | 7.36624 | 37847 ft | 455 kts | 145° |
| 2026-04-29 11:01 | 50.88625 | 7.39268 | 38005 ft | 455 kts | 145° |
| 2026-04-29 11:01 | 50.85939 | 7.41913 | 38163 ft | 456 kts | 146° |
| 2026-04-29 11:02 | 50.83257 | 7.44552 | 38309 ft | 456 kts | 146° |
| 2026-04-29 11:02 | 50.80567 | 7.47196 | 38456 ft | 456 kts | 146° |
| 2026-04-29 11:02 | 50.77875 | 7.49837 | 38602 ft | 456 kts | 146° |
| 2026-04-29 11:02 | 50.75186 | 7.52469 | 38768 ft | 457 kts | 146° |
| 2026-04-29 11:03 | 50.72486 | 7.55103 | 38896 ft | 457 kts | 146° |
| 2026-04-29 11:03 | 50.69795 | 7.57769 | 39041 ft | 457 kts | 145° |
| 2026-04-29 11:03 | 50.67131 | 7.60495 | 39148 ft | 457 kts | 145° |
| 2026-04-29 11:03 | 50.64494 | 7.63251 | 39279 ft | 457 kts | 144° |
| 2026-04-29 11:04 | 50.61851 | 7.66036 | 39304 ft | 459 kts | 144° |
| 2026-04-29 11:04 | 50.56509 | 7.71637 | 39301 ft | 464 kts | 145° |
| 2026-04-29 11:05 | 50.51110 | 7.77213 | 39299 ft | 467 kts | 145° |
| 2026-04-29 11:05 | 50.45676 | 7.82781 | 39296 ft | 468 kts | 145° |
| 2026-04-29 11:06 | 50.40225 | 7.88336 | 39303 ft | 468 kts | 145° |
| 2026-04-29 11:06 | 50.34780 | 7.93894 | 39297 ft | 469 kts | 146° |
| 2026-04-29 11:07 | 50.29318 | 7.99443 | 39292 ft | 469 kts | 146° |
| 2026-04-29 11:07 | 50.23853 | 8.04991 | 39291 ft | 470 kts | 146° |
| 2026-04-29 11:08 | 50.18381 | 8.10532 | 39291 ft | 470 kts | 146° |
| 2026-04-29 11:08 | 50.12852 | 8.15913 | 39287 ft | 470 kts | 153° |
| 2026-04-29 11:09 | 50.06945 | 8.20227 | 39286 ft | 471 kts | 155° |
| 2026-04-29 11:09 | 50.00997 | 8.24504 | 39300 ft | 472 kts | 155° |
| 2026-04-29 11:10 | 49.95054 | 8.28776 | 39295 ft | 472 kts | 155° |
| 2026-04-29 11:10 | 49.89111 | 8.33048 | 39270 ft | 472 kts | 155° |
| 2026-04-29 11:11 | 49.83164 | 8.37307 | 39265 ft | 472 kts | 155° |
| 2026-04-29 11:11 | 49.77211 | 8.41555 | 39268 ft | 472 kts | 155° |
| 2026-04-29 11:12 | 49.71256 | 8.45789 | 39253 ft | 472 kts | 155° |
| 2026-04-29 11:12 | 49.65308 | 8.50024 | 39236 ft | 472 kts | 155° |
| 2026-04-29 11:13 | 49.59359 | 8.54243 | 39241 ft | 471 kts | 156° |
| 2026-04-29 11:13 | 49.53408 | 8.58431 | 39246 ft | 471 kts | 156° |
| 2026-04-29 11:14 | 49.47464 | 8.62618 | 39241 ft | 471 kts | 156° |
| 2026-04-29 11:14 | 49.41523 | 8.66798 | 39231 ft | 471 kts | 156° |
| 2026-04-29 11:15 | 49.35582 | 8.70966 | 39245 ft | 470 kts | 156° |
| 2026-04-29 11:15 | 49.29644 | 8.75123 | 39242 ft | 470 kts | 156° |
| 2026-04-29 11:16 | 49.23703 | 8.79263 | 39239 ft | 470 kts | 156° |
| 2026-04-29 11:16 | 49.17763 | 8.83385 | 39222 ft | 470 kts | 157° |
| 2026-04-29 11:17 | 49.11824 | 8.87503 | 39227 ft | 470 kts | 157° |
| 2026-04-29 11:17 | 49.05878 | 8.91633 | 39224 ft | 470 kts | 157° |
| 2026-04-29 11:18 | 48.99931 | 8.95736 | 39206 ft | 470 kts | 157° |
| 2026-04-29 11:18 | 48.93977 | 8.99823 | 39206 ft | 471 kts | 158° |
| 2026-04-29 11:19 | 48.88012 | 9.03906 | 39199 ft | 471 kts | 158° |
| 2026-04-29 11:19 | 48.82049 | 9.07988 | 39199 ft | 471 kts | 158° |
| 2026-04-29 11:20 | 48.76078 | 9.12075 | 39208 ft | 472 kts | 158° |
| 2026-04-29 11:20 | 48.70104 | 9.16139 | 39191 ft | 472 kts | 158° |
| 2026-04-29 11:21 | 48.64125 | 9.20196 | 39206 ft | 472 kts | 158° |
| 2026-04-29 11:21 | 48.58134 | 9.24250 | 39211 ft | 473 kts | 158° |
| 2026-04-29 11:22 | 48.52145 | 9.28291 | 39192 ft | 473 kts | 158° |
| 2026-04-29 11:22 | 48.46153 | 9.32337 | 39183 ft | 473 kts | 158° |
| 2026-04-29 11:23 | 48.40150 | 9.36370 | 39186 ft | 473 kts | 158° |
| 2026-04-29 11:23 | 48.34152 | 9.40388 | 39182 ft | 473 kts | 158° |
| 2026-04-29 11:24 | 48.28148 | 9.44401 | 39187 ft | 473 kts | 157° |
| 2026-04-29 11:24 | 48.22609 | 9.49717 | 39182 ft | 477 kts | 142° |
| 2026-04-29 11:25 | 48.17491 | 9.56043 | 39182 ft | 478 kts | 142° |
| 2026-04-29 11:25 | 48.12355 | 9.62356 | 39185 ft | 479 kts | 142° |
| 2026-04-29 11:26 | 48.04628 | 9.71812 | 39185 ft | 479 kts | 142° |
| 2026-04-29 11:26 | 47.99473 | 9.78094 | 39187 ft | 480 kts | 142° |
| 2026-04-29 11:27 | 47.94311 | 9.84391 | 39199 ft | 480 kts | 143° |
| 2026-04-29 11:27 | 47.89137 | 9.90666 | 39191 ft | 480 kts | 143° |
| 2026-04-29 11:28 | 47.83963 | 9.96931 | 39184 ft | 481 kts | 143° |
| 2026-04-29 11:28 | 47.78777 | 10.03181 | 39175 ft | 481 kts | 143° |
| 2026-04-29 11:29 | 47.73585 | 10.09418 | 39173 ft | 481 kts | 143° |
| 2026-04-29 11:29 | 47.68398 | 10.15651 | 39171 ft | 481 kts | 143° |
| 2026-04-29 11:30 | 47.63206 | 10.21882 | 39176 ft | 481 kts | 143° |
| 2026-04-29 11:30 | 47.58006 | 10.28089 | 39172 ft | 481 kts | 143° |
| 2026-04-29 11:31 | 47.52592 | 10.33832 | 39157 ft | 479 kts | 149° |
| 2026-04-29 11:31 | 47.47045 | 10.39218 | 39172 ft | 478 kts | 150° |
| 2026-04-29 11:32 | 47.41490 | 10.44593 | 39173 ft | 478 kts | 150° |
| 2026-04-29 11:32 | 47.35935 | 10.49969 | 39180 ft | 479 kts | 150° |
| 2026-04-29 11:33 | 47.30373 | 10.55325 | 39174 ft | 479 kts | 150° |
| 2026-04-29 11:33 | 47.24851 | 10.60774 | 39186 ft | 479 kts | 148° |
| 2026-04-29 11:34 | 47.19451 | 10.66511 | 39198 ft | 479 kts | 146° |
| 2026-04-29 11:34 | 47.14085 | 10.72288 | 39196 ft | 479 kts | 147° |
| 2026-04-29 11:35 | 47.08680 | 10.77971 | 39214 ft | 479 kts | 148° |
| 2026-04-29 11:35 | 47.03240 | 10.83600 | 39203 ft | 479 kts | 148° |
| 2026-04-29 11:36 | 46.97801 | 10.89225 | 39213 ft | 480 kts | 148° |
| 2026-04-29 11:36 | 46.92362 | 10.94852 | 39211 ft | 479 kts | 148° |
| 2026-04-29 11:37 | 46.86939 | 11.00479 | 39211 ft | 479 kts | 148° |
| 2026-04-29 11:37 | 46.81571 | 11.06208 | 39199 ft | 481 kts | 141° |
| 2026-04-29 11:38 | 46.76896 | 11.13212 | 39194 ft | 484 kts | 135° |
| 2026-04-29 11:38 | 46.72311 | 11.20371 | 39187 ft | 484 kts | 135° |
| 2026-04-29 11:39 | 46.67705 | 11.27512 | 39172 ft | 484 kts | 135° |
| 2026-04-29 11:39 | 46.63098 | 11.34628 | 39173 ft | 484 kts | 135° |
| 2026-04-29 11:40 | 46.58489 | 11.41759 | 39169 ft | 485 kts | 135° |
| 2026-04-29 11:40 | 46.53869 | 11.48873 | 39174 ft | 485 kts | 136° |
| 2026-04-29 11:41 | 46.49235 | 11.55970 | 39174 ft | 485 kts | 136° |
| 2026-04-29 11:41 | 46.44603 | 11.63071 | 39173 ft | 486 kts | 136° |
| 2026-04-29 11:42 | 46.39969 | 11.70159 | 39176 ft | 486 kts | 136° |
| 2026-04-29 11:42 | 46.35292 | 11.77182 | 39150 ft | 485 kts | 137° |
| 2026-04-29 11:43 | 46.30529 | 11.84072 | 39155 ft | 485 kts | 137° |
| 2026-04-29 11:43 | 46.25750 | 11.90926 | 39159 ft | 485 kts | 137° |
| 2026-04-29 11:44 | 46.20988 | 11.97798 | 39164 ft | 485 kts | 137° |
| 2026-04-29 11:44 | 46.16237 | 12.04682 | 39163 ft | 486 kts | 137° |
| 2026-04-29 11:45 | 46.11476 | 12.11571 | 39156 ft | 486 kts | 137° |
| 2026-04-29 11:45 | 46.06702 | 12.18435 | 39151 ft | 486 kts | 137° |
| 2026-04-29 11:46 | 46.01914 | 12.25295 | 39156 ft | 486 kts | 137° |
| 2026-04-29 11:46 | 45.97126 | 12.32142 | 39155 ft | 486 kts | 137° |
| 2026-04-29 11:47 | 45.92332 | 12.38973 | 39163 ft | 487 kts | 137° |
| 2026-04-29 11:47 | 45.87532 | 12.45799 | 39143 ft | 487 kts | 137° |
| 2026-04-29 11:48 | 45.82728 | 12.52618 | 39144 ft | 487 kts | 137° |
| 2026-04-29 11:48 | 45.77919 | 12.59428 | 39146 ft | 487 kts | 137° |
| 2026-04-29 11:49 | 45.73107 | 12.66231 | 39145 ft | 487 kts | 138° |
| 2026-04-29 11:49 | 45.68282 | 12.73020 | 39131 ft | 488 kts | 138° |
| 2026-04-29 11:50 | 45.63446 | 12.79800 | 39113 ft | 488 kts | 138° |
| 2026-04-29 11:50 | 45.58608 | 12.86571 | 39115 ft | 488 kts | 138° |
| 2026-04-29 11:51 | 45.53774 | 12.93345 | 39120 ft | 488 kts | 138° |
| 2026-04-29 11:51 | 45.48933 | 13.00107 | 39120 ft | 488 kts | 138° |
| 2026-04-29 11:52 | 45.44070 | 13.06839 | 39121 ft | 489 kts | 138° |
| 2026-04-29 11:52 | 45.39216 | 13.13581 | 39094 ft | 489 kts | 138° |
| 2026-04-29 11:53 | 45.34366 | 13.20312 | 39108 ft | 488 kts | 138° |
| 2026-04-29 11:53 | 45.29539 | 13.27079 | 39118 ft | 489 kts | 136° |
| 2026-04-29 11:54 | 45.25003 | 13.34271 | 39107 ft | 490 kts | 132° |
| 2026-04-29 11:54 | 45.20617 | 13.41658 | 39102 ft | 491 kts | 132° |
| 2026-04-29 11:55 | 45.16175 | 13.48969 | 39084 ft | 490 kts | 134° |
| 2026-04-29 11:55 | 45.11663 | 13.56181 | 39103 ft | 490 kts | 134° |
| 2026-04-29 11:56 | 45.07133 | 13.63366 | 39107 ft | 490 kts | 134° |
| 2026-04-29 11:56 | 45.02610 | 13.70549 | 39109 ft | 490 kts | 134° |
| 2026-04-29 11:57 | 44.98102 | 13.77747 | 39100 ft | 490 kts | 134° |
| 2026-04-29 11:57 | 44.93587 | 13.84939 | 39097 ft | 490 kts | 134° |
| 2026-04-29 11:58 | 44.89061 | 13.92111 | 39091 ft | 490 kts | 134° |
| 2026-04-29 11:58 | 44.84483 | 13.99185 | 39096 ft | 489 kts | 135° |
| 2026-04-29 11:59 | 44.79852 | 14.06181 | 39101 ft | 489 kts | 135° |
| 2026-04-29 11:59 | 44.75228 | 14.13176 | 39113 ft | 489 kts | 135° |
| 2026-04-29 12:00 | 44.70620 | 14.20191 | 39111 ft | 490 kts | 135° |
| 2026-04-29 12:00 | 44.66006 | 14.27216 | 39103 ft | 490 kts | 135° |
| 2026-04-29 12:01 | 44.61386 | 14.34213 | 39098 ft | 490 kts | 135° |
| 2026-04-29 12:01 | 44.56751 | 14.41193 | 39100 ft | 490 kts | 136° |
| 2026-04-29 12:02 | 44.52049 | 14.48065 | 39100 ft | 487 kts | 142° |
| 2026-04-29 12:02 | 44.46904 | 14.54198 | 39100 ft | 487 kts | 143° |
| 2026-04-29 12:03 | 44.41756 | 14.60326 | 39079 ft | 487 kts | 143° |
| 2026-04-29 12:03 | 44.36616 | 14.66444 | 39090 ft | 486 kts | 143° |
| 2026-04-29 12:04 | 44.31472 | 14.72545 | 39090 ft | 485 kts | 143° |
| 2026-04-29 12:04 | 44.28910 | 14.75579 | 38686 ft | 484 kts | 143° |
| 2026-04-29 12:04 | 44.26349 | 14.78610 | 37920 ft | 484 kts | 143° |
| 2026-04-29 12:05 | 44.23789 | 14.81635 | 37167 ft | 483 kts | 143° |
| 2026-04-29 12:05 | 44.21230 | 14.84655 | 36408 ft | 483 kts | 143° |
| 2026-04-29 12:05 | 44.18671 | 14.87669 | 35680 ft | 482 kts | 143° |
| 2026-04-29 12:05 | 44.16115 | 14.90671 | 34948 ft | 481 kts | 143° |
| 2026-04-29 12:06 | 44.13567 | 14.93663 | 34210 ft | 481 kts | 143° |
| 2026-04-29 12:06 | 44.11017 | 14.96658 | 33350 ft | 481 kts | 142° |
| 2026-04-29 12:06 | 44.08464 | 14.99656 | 32424 ft | 482 kts | 142° |
| 2026-04-29 12:06 | 44.05898 | 15.02664 | 31470 ft | 484 kts | 142° |
| 2026-04-29 12:07 | 44.03321 | 15.05683 | 30504 ft | 486 kts | 142° |
| 2026-04-29 12:07 | 44.00738 | 15.08703 | 29422 ft | 488 kts | 142° |
| 2026-04-29 12:07 | 43.98135 | 15.11739 | 28237 ft | 490 kts | 142° |
| 2026-04-29 12:07 | 43.95528 | 15.14776 | 27057 ft | 491 kts | 142° |
| 2026-04-29 12:08 | 43.92914 | 15.17822 | 26000 ft | 491 kts | 142° |
| 2026-04-29 12:08 | 43.90345 | 15.20882 | 25219 ft | 484 kts | 141° |
| 2026-04-29 12:08 | 43.87839 | 15.23944 | 24443 ft | 479 kts | 141° |
| 2026-04-29 12:08 | 43.85374 | 15.26999 | 23706 ft | 474 kts | 141° |
| 2026-04-29 12:09 | 43.82940 | 15.30025 | 22873 ft | 469 kts | 141° |
| 2026-04-29 12:09 | 43.80526 | 15.33006 | 22096 ft | 464 kts | 141° |
| 2026-04-29 12:09 | 43.78129 | 15.35942 | 21370 ft | 458 kts | 141° |
| 2026-04-29 12:09 | 43.75753 | 15.38830 | 20677 ft | 453 kts | 141° |
| 2026-04-29 12:10 | 43.73394 | 15.41684 | 20003 ft | 449 kts | 141° |
| 2026-04-29 12:10 | 43.71064 | 15.44503 | 19357 ft | 444 kts | 141° |
| 2026-04-29 12:10 | 43.68755 | 15.47298 | 18729 ft | 440 kts | 141° |
| 2026-04-29 12:10 | 43.66468 | 15.50066 | 18079 ft | 436 kts | 141° |
| 2026-04-29 12:11 | 43.64205 | 15.52803 | 17424 ft | 431 kts | 141° |
| 2026-04-29 12:11 | 43.61963 | 15.55508 | 16798 ft | 427 kts | 141° |
| 2026-04-29 12:11 | 43.59734 | 15.58168 | 16203 ft | 422 kts | 142° |
| 2026-04-29 12:11 | 43.57524 | 15.60784 | 15816 ft | 413 kts | 142° |
| 2026-04-29 12:12 | 43.55371 | 15.63277 | 15687 ft | 397 kts | 143° |
| 2026-04-29 12:12 | 43.53285 | 15.65656 | 15554 ft | 383 kts | 143° |
| 2026-04-29 12:12 | 43.51268 | 15.67936 | 15426 ft | 369 kts | 143° |
| 2026-04-29 12:12 | 43.49320 | 15.70132 | 15305 ft | 357 kts | 144° |
| 2026-04-29 12:13 | 43.47433 | 15.72260 | 15182 ft | 346 kts | 144° |
| 2026-04-29 12:13 | 43.45569 | 15.74276 | 14747 ft | 342 kts | 152° |
| 2026-04-29 12:13 | 43.43363 | 15.75476 | 13922 ft | 345 kts | 174° |
| 2026-04-29 12:13 | 43.40971 | 15.75452 | 12945 ft | 348 kts | 195° |
| 2026-04-29 12:14 | 43.38732 | 15.74197 | 11910 ft | 353 kts | 216° |
| 2026-04-29 12:14 | 43.36961 | 15.71875 | 11166 ft | 352 kts | 232° |
| 2026-04-29 12:14 | 43.35317 | 15.69514 | 11042 ft | 336 kts | 216° |
| 2026-04-29 12:14 | 43.33200 | 15.68392 | 10904 ft | 325 kts | 188° |
| 2026-04-29 12:15 | 43.31019 | 15.68675 | 10780 ft | 307 kts | 167° |
| 2026-04-29 12:15 | 43.29070 | 15.69647 | 10415 ft | 294 kts | 157° |
| 2026-04-29 12:15 | 43.27326 | 15.71055 | 9858 ft | 290 kts | 145° |
| 2026-04-29 12:15 | 43.25873 | 15.72962 | 9302 ft | 291 kts | 130° |
| 2026-04-29 12:16 | 43.24853 | 15.75338 | 8935 ft | 291 kts | 113° |
| 2026-04-29 12:16 | 43.24359 | 15.78014 | 8557 ft | 291 kts | 97° |
| 2026-04-29 12:16 | 43.24428 | 15.80770 | 8161 ft | 290 kts | 80° |
| 2026-04-29 12:16 | 43.25041 | 15.83391 | 7767 ft | 290 kts | 64° |
| 2026-04-29 12:17 | 43.26138 | 15.85682 | 7374 ft | 288 kts | 48° |
| 2026-04-29 12:17 | 43.27556 | 15.87604 | 6977 ft | 286 kts | 44° |
| 2026-04-29 12:17 | 43.28937 | 15.89426 | 6798 ft | 265 kts | 44° |
| 2026-04-29 12:17 | 43.30204 | 15.91106 | 6665 ft | 244 kts | 44° |
| 2026-04-29 12:18 | 43.31391 | 15.92685 | 6340 ft | 234 kts | 45° |
| 2026-04-29 12:18 | 43.32531 | 15.94250 | 5873 ft | 231 kts | 46° |
| 2026-04-29 12:18 | 43.33645 | 15.95815 | 5395 ft | 228 kts | 47° |
| 2026-04-29 12:18 | 43.34744 | 15.97366 | 4929 ft | 226 kts | 47° |
| 2026-04-29 12:19 | 43.35831 | 15.98900 | 4461 ft | 223 kts | 47° |
| 2026-04-29 12:19 | 43.36908 | 16.00419 | 3983 ft | 221 kts | 48° |
| 2026-04-29 12:19 | 43.37982 | 16.01929 | 3628 ft | 221 kts | 47° |
| 2026-04-29 12:19 | 43.39027 | 16.03396 | 3514 ft | 210 kts | 48° |
| 2026-04-29 12:20 | 43.40014 | 16.04789 | 3423 ft | 197 kts | 51° |
| 2026-04-29 12:20 | 43.40811 | 16.06265 | 3176 ft | 190 kts | 58° |
| 2026-04-29 12:20 | 43.41584 | 16.07732 | 2899 ft | 188 kts | 56° |
| 2026-04-29 12:20 | 43.42370 | 16.09162 | 2900 ft | 188 kts | 56° |
| 2026-04-29 12:21 | 43.43166 | 16.10590 | 2899 ft | 189 kts | 56° |
| 2026-04-29 12:21 | 43.43966 | 16.12019 | 2893 ft | 189 kts | 56° |
| 2026-04-29 12:21 | 43.44765 | 16.13445 | 2741 ft | 189 kts | 55° |
| 2026-04-29 12:21 | 43.45564 | 16.14873 | 2514 ft | 189 kts | 56° |
| 2026-04-29 12:22 | 43.46357 | 16.16290 | 2264 ft | 188 kts | 56° |
| 2026-04-29 12:22 | 43.47181 | 16.17759 | 2057 ft | 200 kts | 56° |
| 2026-04-29 12:22 | 43.48039 | 16.19280 | 1785 ft | 201 kts | 54° |
| 2026-04-29 12:22 | 43.48885 | 16.20757 | 1490 ft | 193 kts | 55° |
| 2026-04-29 12:23 | 43.49654 | 16.22187 | 1212 ft | 178 kts | 57° |
| 2026-04-29 12:23 | 43.50335 | 16.23473 | 1057 ft | 157 kts | 56° |
| 2026-04-29 12:23 | 43.50986 | 16.24605 | 832 ft | 145 kts | 53° |
| 2026-04-29 12:23 | 43.51589 | 16.25676 | 639 ft | 139 kts | 55° |
| 2026-04-29 12:24 | 43.52173 | 16.26684 | 433 ft | 130 kts | 55° |
| 2026-04-29 12:24 | 43.52702 | 16.27641 | 301 ft | 124 kts | 60° |
| 2026-04-29 12:24 | 43.53219 | 16.28604 | 116 ft | 124 kts | 53° |
| 2026-04-29 12:24 | 43.53663 | 16.29399 | 83 ft | 70 kts | 52° |
| 2026-04-29 12:25 | 43.53863 | 16.29750 | 72 ft | 41 kts | 53° |
| 2026-04-29 12:25 | 43.54016 | 16.30039 | 59 ft | 20 kts | 50° |
| 2026-04-29 12:25 | 43.53996 | 16.30094 | 60 ft | 4 kts | 192° |
| 2026-04-29 12:26 | 43.53945 | 16.30074 | 67 ft | 9 kts | 196° |
| 2026-04-29 12:26 | 43.53904 | 16.30045 | 64 ft | 7 kts | 220° |
| 2026-04-29 12:26 | 43.53852 | 16.29959 | 68 ft | 16 kts | 233° |
| 2026-04-29 12:26 | 43.53788 | 16.29845 | 61 ft | 14 kts | 232° |
| 2026-04-29 12:27 | 43.53733 | 16.29745 | 63 ft | 3 kts | 232° |
| 2026-04-29 12:27 | 43.53726 | 16.29740 | 68 ft | 1 kts | 199° |
| 2026-04-29 12:27 | 43.53718 | 16.29747 | 67 ft | 3 kts | 140° |
| 2026-04-29 12:27 | 43.53708 | 16.29774 | 66 ft | 3 kts | 117° |
| 2026-04-29 12:28 | 43.53699 | 16.29798 | 62 ft | 3 kts | 117° |
| 2026-04-29 12:28 | 43.53693 | 16.29815 | 64 ft | 0 kts | 117° |